Terminal Aerodrome Forecast
Issued by NWS Cleveland, OH

Home | Current Version | Previous Version | Text Only | Print | Product List | Glossary On
Versions: 1 2 3 4 5 6 7 8 9 10 11 12 13 14 15 16
000
FTUS41 KCLE 022106 AAB
TAFCAK
TAF AMD
KCAK 022106Z 0221/0318 27008KT P6SM VCTS SCT050CB BKN100
      TEMPO 0221/0222 VRB15G25KT 4SM TSRA BKN050CB
     FM022300 26008KT P6SM SCT050
      TEMPO 0311/0313 5SM BR
     FM031300 30005KT P6SM SCT060 BKN150=

USA.gov is the U.S. government's official web portal to all federal, state and local government web resources and services.